createdAt,value
2018-09-20T00:00:07.751Z,17.74
2018-09-20T00:01:07.746Z,17.72
2018-09-20T00:02:07.762Z,17.65
2018-09-20T00:03:07.727Z,17.68
2018-09-20T00:04:07.731Z,17.68
2018-09-20T00:05:07.701Z,17.65
2018-09-20T00:06:07.690Z,17.70
2018-09-20T00:07:07.708Z,17.65
2018-09-20T00:08:07.672Z,17.70
2018-09-20T00:09:07.660Z,17.56
2018-09-20T00:10:07.645Z,17.56
2018-09-20T00:11:07.640Z,17.64
2018-09-20T00:12:07.640Z,17.64
2018-09-20T00:13:07.616Z,17.54
2018-09-20T00:14:07.629Z,17.64
2018-09-20T00:15:07.592Z,17.59
2018-09-20T00:16:07.577Z,17.54
2018-09-20T00:17:07.602Z,17.54
2018-09-20T00:18:07.560Z,17.56
2018-09-20T00:19:07.544Z,17.54
2018-09-20T00:20:07.562Z,17.57
2018-09-20T00:21:07.532Z,17.52
2018-09-20T00:22:07.550Z,17.42
2018-09-20T00:23:07.501Z,17.49
2018-09-20T00:24:07.548Z,17.41
2018-09-20T00:25:07.485Z,17.51
2018-09-20T00:26:07.478Z,17.45
2018-09-20T00:27:07.457Z,17.45
2018-09-20T00:28:07.476Z,17.34
2018-09-20T00:29:07.447Z,17.29
2018-09-20T00:30:07.428Z,17.34
2018-09-20T00:31:07.412Z,17.30
2018-09-20T00:32:07.400Z,17.30
2018-09-20T00:33:07.434Z,17.29
2018-09-20T00:34:07.385Z,17.30
2018-09-20T00:35:07.372Z,17.29
2018-09-20T00:36:07.374Z,17.29
2018-09-20T00:37:07.354Z,17.24
2018-09-20T00:38:07.361Z,17.22
2018-09-20T00:39:07.323Z,17.16
2018-09-20T00:40:07.311Z,17.20
2018-09-20T00:41:07.333Z,17.16
2018-09-20T00:42:07.295Z,17.15
2018-09-20T00:43:07.345Z,17.12
2018-09-20T00:44:07.279Z,17.19
2018-09-20T00:45:07.258Z,17.14
2018-09-20T00:46:07.261Z,17.09
2018-09-20T00:47:07.238Z,17.15
2018-09-20T00:48:07.230Z,17.05
2018-09-20T00:49:07.251Z,17.01
2018-09-20T00:50:07.211Z,17.05
2018-09-20T00:51:07.195Z,17.15
2018-09-20T00:52:07.188Z,17.09
2018-09-20T00:53:07.167Z,16.97
2018-09-20T00:54:07.178Z,16.97
2018-09-20T00:55:07.153Z,16.97
2018-09-20T00:56:07.161Z,16.97
2018-09-20T00:57:07.147Z,17.01
2018-09-20T00:58:07.132Z,16.99
2018-09-20T00:59:07.135Z,17.02
2018-09-20T01:00:07.097Z,17.02
2018-09-20T01:01:07.085Z,16.97
2018-09-20T01:02:07.076Z,16.96
2018-09-20T01:03:07.064Z,16.99
2018-09-20T01:04:07.068Z,16.97
2018-09-20T01:05:07.108Z,16.99
2018-09-20T01:06:07.065Z,16.96
2018-09-20T01:07:07.020Z,16.84
2018-09-20T01:08:07.007Z,16.90
2018-09-20T01:09:07.075Z,16.90
2018-09-20T01:10:06.987Z,16.93
2018-09-20T01:11:06.986Z,16.87
2018-09-20T01:12:06.965Z,16.87
2018-09-20T01:13:06.958Z,16.87
2018-09-20T01:14:06.967Z,16.81
2018-09-20T01:15:06.952Z,16.83
2018-09-20T01:16:06.917Z,16.79
2018-09-20T01:17:06.909Z,16.74
2018-09-20T01:18:06.913Z,16.76
2018-09-20T01:19:06.906Z,16.78
2018-09-20T01:20:06.899Z,16.72
2018-09-20T01:21:06.883Z,16.71
2018-09-20T01:22:06.850Z,16.75
2018-09-20T01:23:06.836Z,16.75
2018-09-20T01:24:06.850Z,16.71
2018-09-20T01:25:06.842Z,16.72
2018-09-20T01:26:06.802Z,16.66
2018-09-20T01:27:06.796Z,16.64
2018-09-20T01:28:06.840Z,16.68
2018-09-20T01:29:06.803Z,16.61
2018-09-20T01:30:06.782Z,16.58
2018-09-20T01:31:06.753Z,16.57
2018-09-20T01:32:06.740Z,16.58
2018-09-20T01:33:06.748Z,16.60
2018-09-20T01:34:06.718Z,16.66
2018-09-20T01:35:06.741Z,16.64
2018-09-20T01:36:06.730Z,16.61
2018-09-20T01:37:06.694Z,16.64
2018-09-20T01:38:06.685Z,16.56
2018-09-20T01:39:06.661Z,16.58
2018-09-20T01:40:06.683Z,16.57
2018-09-20T01:41:06.634Z,16.58
2018-09-20T01:42:06.641Z,16.61
2018-09-20T01:43:06.619Z,16.57
2018-09-20T01:44:06.629Z,16.51
2018-09-20T01:45:06.614Z,16.56
2018-09-20T01:46:06.619Z,16.54
2018-09-20T01:47:06.571Z,16.51
2018-09-20T01:48:06.571Z,16.46
2018-09-20T01:49:06.563Z,16.49
2018-09-20T01:50:06.539Z,16.42
2018-09-20T01:51:06.548Z,16.50
2018-09-20T01:52:06.518Z,16.46
2018-09-20T01:53:06.501Z,16.49
2018-09-20T01:54:06.500Z,16.53
2018-09-20T01:55:06.484Z,16.51
2018-09-20T01:56:06.513Z,16.33
2018-09-20T01:57:06.483Z,16.43
2018-09-20T01:58:06.447Z,16.41
2018-09-20T01:59:06.437Z,16.42
2018-09-20T02:00:06.436Z,16.42
2018-09-20T02:01:06.415Z,16.42
2018-09-20T02:02:06.432Z,16.42
2018-09-20T02:03:06.395Z,16.47
2018-09-20T02:04:06.388Z,16.54
2018-09-20T02:05:06.383Z,16.43
2018-09-20T02:06:06.359Z,16.43
2018-09-20T02:07:06.369Z,16.39
2018-09-20T02:08:06.338Z,16.42
2018-09-20T02:09:06.323Z,16.38
2018-09-20T02:10:06.315Z,16.36
2018-09-20T02:11:06.314Z,16.38
2018-09-20T02:12:06.345Z,16.35
2018-09-20T02:13:06.281Z,16.36
2018-09-20T02:14:06.287Z,16.31
2018-09-20T02:15:06.258Z,16.33
2018-09-20T02:16:06.245Z,16.38
2018-09-20T02:17:06.266Z,16.31
2018-09-20T02:18:06.234Z,16.39
2018-09-20T02:19:06.221Z,16.32
2018-09-20T02:20:06.201Z,16.31
2018-09-20T02:21:06.200Z,16.33
2018-09-20T02:22:06.197Z,16.24
2018-09-20T02:23:06.204Z,16.33
2018-09-20T02:24:06.164Z,16.41
2018-09-20T02:25:06.144Z,16.20
2018-09-20T02:26:06.142Z,16.26
2018-09-20T02:27:06.119Z,16.28
2018-09-20T02:28:06.139Z,16.28
2018-09-20T02:29:06.102Z,16.31
2018-09-20T02:30:06.108Z,16.21
2018-09-20T02:31:06.090Z,16.15
2018-09-20T02:32:06.088Z,16.24
2018-09-20T02:33:06.077Z,16.15
2018-09-20T02:34:06.048Z,16.10
2018-09-20T02:35:06.055Z,16.12
2018-09-20T02:36:06.026Z,16.01
2018-09-20T02:37:06.017Z,16.08
2018-09-20T02:38:06.050Z,16.00
2018-09-20T02:39:05.997Z,15.97
2018-09-20T02:40:05.990Z,16.02
2018-09-20T02:41:05.985Z,15.98
2018-09-20T02:42:05.962Z,15.92
2018-09-20T02:43:05.968Z,15.92
2018-09-20T02:44:05.939Z,15.95
2018-09-20T02:45:05.920Z,16.02
2018-09-20T02:46:05.921Z,15.94
2018-09-20T02:47:05.902Z,15.90
2018-09-20T02:48:05.916Z,15.98
2018-09-20T02:49:05.876Z,15.90
2018-09-20T02:50:05.869Z,15.90
2018-09-20T02:51:05.874Z,15.90
2018-09-20T02:52:05.869Z,15.91
2018-09-20T02:53:05.856Z,15.82
2018-09-20T02:54:05.839Z,15.92
2018-09-20T02:55:05.808Z,15.88
2018-09-20T02:56:05.801Z,15.91
2018-09-20T02:57:05.793Z,15.91
2018-09-20T02:58:05.781Z,15.90
2018-09-20T02:59:05.929Z,15.92
2018-09-20T03:00:05.761Z,15.94
2018-09-20T03:01:05.746Z,15.92
2018-09-20T03:02:05.729Z,15.97
2018-09-20T03:03:05.729Z,15.98
2018-09-20T03:04:05.760Z,15.95
2018-09-20T03:05:05.702Z,15.97
2018-09-20T03:06:05.698Z,15.90
2018-09-20T03:07:05.690Z,15.90
2018-09-20T03:08:05.676Z,15.86
2018-09-20T03:09:05.675Z,15.84
2018-09-20T03:10:05.651Z,15.82
2018-09-20T03:11:05.630Z,15.80
2018-09-20T03:12:05.623Z,15.83
2018-09-20T03:13:05.612Z,15.75
2018-09-20T03:15:06.742Z,15.83
2018-09-20T03:16:05.579Z,15.73
2018-09-20T03:17:05.570Z,15.72
2018-09-20T03:18:05.563Z,15.67
2018-09-20T03:19:05.586Z,15.75
2018-09-20T03:20:05.537Z,15.70
2018-09-20T03:21:05.532Z,15.72
2018-09-20T03:22:05.510Z,15.70
2018-09-20T03:23:05.503Z,15.68
2018-09-20T03:24:05.533Z,15.70
2018-09-20T03:25:05.574Z,15.72
2018-09-20T03:26:05.475Z,15.65
2018-09-20T03:27:05.511Z,15.73
2018-09-20T03:28:05.444Z,15.76
2018-09-20T03:29:05.457Z,15.64
2018-09-20T03:30:05.441Z,15.76
2018-09-20T03:31:05.415Z,15.75
2018-09-20T03:32:05.398Z,15.73
2018-09-20T03:33:05.388Z,15.77
2018-09-20T03:34:05.387Z,15.72
2018-09-20T03:35:05.391Z,15.79
2018-09-20T03:36:05.353Z,15.77
2018-09-20T03:37:05.359Z,15.77
2018-09-20T03:38:05.332Z,15.77
2018-09-20T03:39:05.329Z,15.80
2018-09-20T03:40:05.320Z,15.79
2018-09-20T03:41:05.296Z,15.65
2018-09-20T03:42:05.301Z,15.77
2018-09-20T03:43:05.285Z,15.65
2018-09-20T03:44:05.267Z,15.65
2018-09-20T03:45:05.279Z,15.68
2018-09-20T03:46:05.271Z,15.68
2018-09-20T03:47:05.234Z,15.70
2018-09-20T03:48:05.223Z,15.64
2018-09-20T03:49:05.219Z,15.67
2018-09-20T03:50:05.225Z,15.70
2018-09-20T03:51:05.192Z,15.70
2018-09-20T03:52:05.203Z,15.76
2018-09-20T03:53:05.162Z,15.68
2018-09-20T03:54:05.156Z,15.67
2018-09-20T03:55:05.165Z,15.62
2018-09-20T03:56:05.156Z,15.67
2018-09-20T03:57:05.118Z,15.67
2018-09-20T03:58:05.108Z,15.65
2018-09-20T03:59:05.109Z,15.67
2018-09-20T04:00:05.225Z,15.67
2018-09-20T04:01:05.097Z,15.61
2018-09-20T04:02:05.094Z,15.61
2018-09-20T04:03:05.057Z,15.65
2018-09-20T04:04:05.052Z,15.72
2018-09-20T04:05:05.057Z,15.68
2018-09-20T04:06:05.039Z,15.75
2018-09-20T04:07:05.033Z,15.73
2018-09-20T04:08:04.996Z,15.68
2018-09-20T04:09:04.999Z,15.72
2018-09-20T04:10:04.977Z,15.67
2018-09-20T04:11:04.998Z,15.67
2018-09-20T04:12:04.974Z,15.67
2018-09-20T04:13:04.966Z,15.76
2018-09-20T04:14:04.935Z,15.73
2018-09-20T04:15:04.921Z,15.75
2018-09-20T04:16:04.920Z,15.70
2018-09-20T04:17:04.922Z,15.75
2018-09-20T04:18:04.901Z,15.84
2018-09-20T04:19:04.880Z,15.86
2018-09-20T04:20:04.861Z,15.90
2018-09-20T04:21:04.878Z,15.86
2018-09-20T04:22:04.865Z,15.83
2018-09-20T04:23:04.870Z,15.90
2018-09-20T04:24:04.839Z,15.92
2018-09-20T04:25:04.815Z,15.91
2018-09-20T04:26:04.829Z,15.90
2018-09-20T04:27:04.876Z,15.95
2018-09-20T04:28:04.776Z,16.00
2018-09-20T04:29:04.790Z,15.92
2018-09-20T04:30:04.751Z,15.94
2018-09-20T04:31:04.787Z,15.97
2018-09-20T04:32:04.764Z,15.94
2018-09-20T04:33:04.723Z,15.98
2018-09-20T04:34:04.715Z,15.97
2018-09-20T04:35:04.722Z,15.95
2018-09-20T04:36:04.732Z,15.92
2018-09-20T04:37:04.733Z,15.92
2018-09-20T04:38:04.664Z,15.90
2018-09-20T04:39:04.656Z,15.91
2018-09-20T04:40:04.652Z,15.97
2018-09-20T04:41:04.636Z,15.98
2018-09-20T04:42:04.646Z,16.00
2018-09-20T04:43:04.619Z,15.90
2018-09-20T04:44:04.606Z,15.92
2018-09-20T04:45:04.604Z,15.95
2018-09-20T04:46:04.593Z,16.02
2018-09-20T04:47:04.589Z,16.02
2018-09-20T04:48:04.605Z,16.00
2018-09-20T04:49:04.547Z,16.08
2018-09-20T04:50:04.544Z,16.08
2018-09-20T04:51:04.521Z,16.13
2018-09-20T04:52:04.527Z,16.12
2018-09-20T04:53:04.506Z,16.15
2018-09-20T04:54:04.493Z,16.13
2018-09-20T04:55:04.483Z,16.04
2018-09-20T04:56:04.469Z,16.13
2018-09-20T04:57:04.512Z,16.15
2018-09-20T04:58:04.449Z,16.12
2018-09-20T04:59:04.454Z,16.09
2018-09-20T05:00:04.528Z,16.15
2018-09-20T05:01:04.415Z,16.13
2018-09-20T05:02:04.419Z,16.08
2018-09-20T05:03:04.401Z,16.00
2018-09-20T05:04:04.377Z,16.12
2018-09-20T05:05:04.380Z,16.01
2018-09-20T05:06:04.357Z,16.08
2018-09-20T05:07:04.362Z,16.13
2018-09-20T05:08:04.371Z,15.98
2018-09-20T05:09:04.354Z,16.01
2018-09-20T05:10:04.328Z,16.02
2018-09-20T05:11:04.318Z,16.04
2018-09-20T05:12:04.318Z,15.92
2018-09-20T05:13:04.297Z,16.00
2018-09-20T05:14:04.270Z,15.92
2018-09-20T05:15:04.273Z,15.91
2018-09-20T05:16:04.250Z,15.94
2018-09-20T05:17:04.238Z,15.91
2018-09-20T05:18:04.248Z,15.86
2018-09-20T05:19:04.265Z,15.86
2018-09-20T05:20:04.259Z,15.79
2018-09-20T05:21:04.191Z,15.84
2018-09-20T05:22:04.196Z,15.79
2018-09-20T05:23:04.198Z,15.77
2018-09-20T05:24:04.160Z,15.76
2018-09-20T05:25:04.146Z,15.70
2018-09-20T05:26:04.135Z,15.65
2018-09-20T05:27:04.121Z,15.70
2018-09-20T05:28:04.164Z,15.61
2018-09-20T05:29:04.128Z,15.67
2018-09-20T05:30:04.097Z,15.72
2018-09-20T05:31:04.098Z,15.73
2018-09-20T05:32:04.091Z,15.68
2018-09-20T05:33:04.065Z,15.70
2018-09-20T05:34:04.079Z,15.62
2018-09-20T05:35:04.044Z,15.61
2018-09-20T05:36:04.031Z,15.65
2018-09-20T05:37:04.049Z,15.61
2018-09-20T05:38:04.008Z,15.65
2018-09-20T05:39:04.013Z,15.62
2018-09-20T05:40:03.987Z,15.72
2018-09-20T05:41:03.974Z,15.72
2018-09-20T05:42:03.960Z,15.65
2018-09-20T05:43:03.950Z,15.70
2018-09-20T05:44:03.976Z,15.61
2018-09-20T05:45:03.953Z,15.67
2018-09-20T05:46:03.913Z,15.75
2018-09-20T05:47:03.907Z,15.64
2018-09-20T05:48:03.905Z,15.73
2018-09-20T05:49:03.903Z,15.77
2018-09-20T05:50:03.878Z,15.80
2018-09-20T05:51:03.855Z,15.75
2018-09-20T05:52:03.847Z,15.82
2018-09-20T05:53:03.846Z,15.83
2018-09-20T05:54:03.865Z,15.88
2018-09-20T05:55:03.823Z,15.83
2018-09-20T05:56:03.804Z,15.82
2018-09-20T05:57:03.798Z,15.82
2018-09-20T05:58:03.787Z,15.90
2018-09-20T05:59:03.784Z,15.84
2018-09-20T06:00:03.773Z,15.84
2018-09-20T06:01:03.762Z,15.90
2018-09-20T06:02:03.769Z,15.86
2018-09-20T06:03:03.726Z,15.90
2018-09-20T06:04:03.737Z,15.95
2018-09-20T06:05:03.743Z,15.95
2018-09-20T06:06:03.710Z,15.92
2018-09-20T06:07:03.701Z,15.98
2018-09-20T06:08:03.678Z,15.98
2018-09-20T06:09:03.665Z,16.01
2018-09-20T06:10:03.676Z,16.04
2018-09-20T06:11:03.644Z,16.01
2018-09-20T06:12:03.640Z,16.00
2018-09-20T06:13:03.618Z,16.00
2018-09-20T06:14:03.625Z,16.12
2018-09-20T06:15:03.608Z,16.10
2018-09-20T06:16:03.584Z,16.16
2018-09-20T06:17:03.573Z,16.17
2018-09-20T06:18:03.574Z,16.21
2018-09-20T06:19:03.551Z,16.28
2018-09-20T06:20:03.556Z,16.39
2018-09-20T06:21:03.528Z,16.35
2018-09-20T06:22:03.512Z,16.41
2018-09-20T06:23:03.505Z,16.46
2018-09-20T06:24:03.492Z,16.57
2018-09-20T06:25:03.542Z,16.72
2018-09-20T06:26:03.500Z,16.76
2018-09-20T06:27:03.462Z,16.91
2018-09-20T06:28:03.451Z,17.04
2018-09-20T06:29:03.452Z,17.06
2018-09-20T06:30:03.472Z,17.11
2018-09-20T06:31:03.424Z,17.16
2018-09-20T06:32:03.403Z,17.15
2018-09-20T06:33:03.397Z,17.12
2018-09-20T06:34:03.389Z,17.20
2018-09-20T06:35:03.394Z,17.19
2018-09-20T06:36:03.402Z,17.26
2018-09-20T06:37:03.371Z,17.29
2018-09-20T06:38:03.336Z,17.36
2018-09-20T06:39:03.326Z,17.39
2018-09-20T06:40:03.320Z,17.39
2018-09-20T06:41:03.415Z,17.42
2018-09-20T06:42:03.297Z,17.49
2018-09-20T06:43:03.279Z,17.54
2018-09-20T06:44:03.274Z,17.57
2018-09-20T06:45:03.290Z,17.71
2018-09-20T06:46:03.274Z,17.65
2018-09-20T06:47:03.239Z,17.65
2018-09-20T06:48:03.227Z,17.67
2018-09-20T06:49:03.215Z,17.65
2018-09-20T06:50:03.210Z,17.79
2018-09-20T06:51:03.213Z,17.70
2018-09-20T06:52:03.182Z,17.72
2018-09-20T06:53:03.177Z,17.71
2018-09-20T06:54:03.190Z,17.80
2018-09-20T06:55:03.154Z,17.80
2018-09-20T06:56:03.178Z,17.83
2018-09-20T06:57:03.139Z,17.85
2018-09-20T06:58:03.118Z,17.86
2018-09-20T06:59:03.128Z,17.86
2018-09-20T07:00:03.090Z,17.87
2018-09-20T07:01:03.116Z,17.90
2018-09-20T07:02:03.085Z,17.92
2018-09-20T07:03:03.172Z,17.95
2018-09-20T07:04:03.057Z,17.92
2018-09-20T07:05:03.041Z,17.90
2018-09-20T07:06:03.032Z,17.97
2018-09-20T07:07:03.028Z,18.07
2018-09-20T07:08:03.007Z,18.07
2018-09-20T07:09:03.010Z,18.13
2018-09-20T07:10:02.997Z,18.33
2018-09-20T07:11:02.982Z,18.35
2018-09-20T07:12:04.851Z,18.37
2018-09-20T07:13:02.952Z,18.33
2018-09-20T07:14:02.948Z,18.31
2018-09-20T07:15:02.927Z,18.44
2018-09-20T07:16:02.920Z,18.52
2018-09-20T07:17:02.945Z,18.53
2018-09-20T07:18:02.903Z,18.56
2018-09-20T07:19:02.934Z,18.65
2018-09-20T07:20:02.882Z,18.63
2018-09-20T07:21:02.867Z,18.71
2018-09-20T07:22:02.886Z,18.71
2018-09-20T07:23:02.850Z,18.88
2018-09-20T07:24:02.842Z,18.84
2018-09-20T07:25:02.858Z,19.00
2018-09-20T07:26:02.817Z,18.98
2018-09-20T07:27:02.838Z,19.11
2018-09-20T07:28:02.784Z,19.11
2018-09-20T07:29:02.774Z,19.08
2018-09-20T07:30:02.761Z,19.07
2018-09-20T07:31:02.754Z,19.18
2018-09-20T07:32:02.777Z,19.07
2018-09-20T07:33:02.732Z,19.14
2018-09-20T07:34:02.714Z,19.12
2018-09-20T07:35:02.715Z,19.04
2018-09-20T07:36:02.695Z,19.00
2018-09-20T07:37:02.708Z,18.99
2018-09-20T07:38:02.672Z,19.07
2018-09-20T07:39:02.681Z,18.98
2018-09-20T07:40:02.659Z,18.96
2018-09-20T07:41:02.639Z,18.92
2018-09-20T07:42:02.702Z,18.83
2018-09-20T07:43:02.630Z,18.93
2018-09-20T07:44:02.605Z,18.95
2018-09-20T07:45:02.598Z,18.92
2018-09-20T07:46:02.586Z,18.89
2018-09-20T07:47:02.578Z,19.00
2018-09-20T07:48:02.592Z,18.98
2018-09-20T07:49:02.549Z,18.96
2018-09-20T07:50:02.580Z,18.92
2018-09-20T07:51:02.536Z,18.95
2018-09-20T07:52:02.537Z,18.98
2018-09-20T07:53:02.547Z,18.92
2018-09-20T07:54:02.512Z,18.96
2018-09-20T07:55:02.496Z,19.02
2018-09-20T07:56:02.478Z,19.12
2018-09-20T07:57:02.512Z,19.19
2018-09-20T07:58:02.473Z,19.33
2018-09-20T07:59:02.457Z,19.41
2018-09-20T08:00:02.433Z,19.55
2018-09-20T08:01:02.424Z,19.56
2018-09-20T08:02:02.427Z,19.82
2018-09-20T08:03:02.455Z,19.99
2018-09-20T08:04:02.385Z,20.14
2018-09-20T08:05:02.385Z,20.36
2018-09-20T08:06:02.367Z,20.47
2018-09-20T08:07:02.382Z,20.81
2018-09-20T08:08:02.367Z,21.09
2018-09-20T08:09:02.331Z,21.35
2018-09-20T08:10:02.339Z,21.79
2018-09-20T08:11:02.318Z,22.17
2018-09-20T08:12:02.303Z,22.33
2018-09-20T08:13:02.371Z,22.53
2018-09-20T08:14:02.289Z,22.76
2018-09-20T08:15:02.283Z,23.05
2018-09-20T08:16:02.262Z,23.20
2018-09-20T08:17:02.277Z,23.40
2018-09-20T08:18:02.236Z,23.74
2018-09-20T08:19:02.247Z,23.81
2018-09-20T08:20:02.221Z,23.66
2018-09-20T08:21:02.203Z,23.63
2018-09-20T08:22:02.192Z,23.78
2018-09-20T08:23:02.214Z,23.81
2018-09-20T08:24:02.199Z,23.78
2018-09-20T08:25:02.162Z,23.95
2018-09-20T08:26:02.178Z,24.14
2018-09-20T08:27:02.147Z,24.24
2018-09-20T08:28:02.140Z,24.23
2018-09-20T08:29:02.141Z,24.17
2018-09-20T08:30:02.149Z,23.83
2018-09-20T08:31:02.105Z,23.50
2018-09-20T08:32:02.095Z,23.20
2018-09-20T08:33:02.113Z,23.25
2018-09-20T08:34:02.111Z,23.31
2018-09-20T08:35:02.080Z,23.34
2018-09-20T08:36:02.086Z,23.47
2018-09-20T08:37:02.045Z,23.61
2018-09-20T08:38:02.037Z,23.81
2018-09-20T08:39:02.048Z,23.99
2018-09-20T08:40:02.013Z,23.92
2018-09-20T08:41:02.014Z,24.06
2018-09-20T08:42:02.016Z,23.92
2018-09-20T08:43:01.978Z,23.86
2018-09-20T08:44:01.999Z,23.87
2018-09-20T08:45:01.963Z,23.78
2018-09-20T08:46:01.954Z,23.74
2018-09-20T08:47:01.938Z,23.86
2018-09-20T08:48:01.942Z,23.80
2018-09-20T08:49:01.949Z,23.95
2018-09-20T08:50:01.929Z,24.02
2018-09-20T08:51:01.923Z,24.26
2018-09-20T08:52:01.893Z,24.36
2018-09-20T08:53:01.877Z,24.36
2018-09-20T08:54:01.862Z,24.13
2018-09-20T08:55:01.869Z,23.99
2018-09-20T08:56:01.847Z,23.93
2018-09-20T08:57:01.878Z,23.69
2018-09-20T08:58:01.826Z,23.43
2018-09-20T08:59:01.823Z,23.34
2018-09-20T09:00:01.834Z,23.28
2018-09-20T09:01:01.793Z,23.23
2018-09-20T09:02:01.775Z,23.37
2018-09-20T09:03:01.791Z,23.43
2018-09-20T09:04:01.758Z,23.51
2018-09-20T09:05:01.802Z,23.51
2018-09-20T09:06:01.737Z,23.46
2018-09-20T09:07:01.723Z,23.46
2018-09-20T09:08:01.711Z,23.59
2018-09-20T09:09:01.732Z,23.77
2018-09-20T09:10:01.739Z,23.73
2018-09-20T09:11:01.685Z,23.83
2018-09-20T09:12:01.695Z,23.76
2018-09-20T09:13:01.693Z,23.73
2018-09-20T09:14:01.649Z,23.87
2018-09-20T09:15:01.657Z,23.73
2018-09-20T09:16:01.649Z,23.86
2018-09-20T09:17:01.620Z,23.93
2018-09-20T09:18:01.618Z,24.03
2018-09-20T09:19:01.604Z,24.20
2018-09-20T09:20:01.584Z,24.20
2018-09-20T09:21:01.609Z,24.11
2018-09-20T09:22:01.582Z,24.13
2018-09-20T09:23:01.559Z,23.96
2018-09-20T09:24:01.557Z,23.98
2018-09-20T09:25:01.582Z,23.73
2018-09-20T09:26:01.520Z,23.41
2018-09-20T09:27:01.532Z,23.28
2018-09-20T09:28:01.518Z,23.18
2018-09-20T09:29:01.492Z,23.09
2018-09-20T09:30:01.480Z,23.13
2018-09-20T09:31:01.495Z,23.21
2018-09-20T09:32:01.481Z,23.34
2018-09-20T09:33:01.463Z,23.21
2018-09-20T09:34:01.485Z,23.43
2018-09-20T09:35:01.424Z,23.58
2018-09-20T09:36:01.439Z,23.71
2018-09-20T09:37:01.422Z,23.77
2018-09-20T09:38:01.401Z,23.74
2018-09-20T09:39:01.392Z,23.56
2018-09-20T09:40:01.376Z,23.37
2018-09-20T09:41:01.361Z,23.32
2018-09-20T09:42:01.401Z,23.27
2018-09-20T09:43:01.354Z,23.28
2018-09-20T09:44:01.331Z,23.47
2018-09-20T09:45:01.330Z,23.48
2018-09-20T09:46:01.312Z,23.69
2018-09-20T09:47:01.318Z,23.71
2018-09-20T09:48:01.404Z,23.71
2018-09-20T09:49:01.276Z,23.68
2018-09-20T09:50:01.272Z,23.80
2018-09-20T09:51:01.253Z,23.95
2018-09-20T09:52:01.380Z,24.03
2018-09-20T09:53:01.255Z,24.08
2018-09-20T09:54:01.229Z,24.01
2018-09-20T09:55:01.238Z,24.21
2018-09-20T09:56:01.210Z,24.38
2018-09-20T09:57:01.235Z,24.36
2018-09-20T09:58:01.180Z,24.40
2018-09-20T09:59:01.173Z,24.33
2018-09-20T10:00:01.164Z,24.17
2018-09-20T10:01:01.156Z,24.28
2018-09-20T10:02:01.162Z,24.36
2018-09-20T10:03:01.133Z,24.42
2018-09-20T10:04:01.121Z,24.61
2018-09-20T10:05:01.105Z,24.76
2018-09-20T10:06:01.097Z,24.81
2018-09-20T10:07:01.186Z,24.81
2018-09-20T10:08:01.103Z,24.65
2018-09-20T10:09:01.094Z,24.63
2018-09-20T10:10:01.053Z,24.61
2018-09-20T10:11:01.048Z,24.42
2018-09-20T10:12:01.047Z,24.36
2018-09-20T10:13:01.050Z,24.36
2018-09-20T10:14:01.003Z,24.42
2018-09-20T10:15:01.015Z,24.36
2018-09-20T10:16:00.989Z,24.36
2018-09-20T10:17:00.978Z,24.35
2018-09-20T10:18:00.996Z,24.36
2018-09-20T10:19:00.956Z,24.28
2018-09-20T10:20:01.034Z,24.39
2018-09-20T10:21:00.934Z,24.63
2018-09-20T10:22:00.923Z,24.61
2018-09-20T10:23:00.938Z,24.73
2018-09-20T10:24:00.958Z,24.68
2018-09-20T10:25:00.895Z,24.73
2018-09-20T10:26:00.909Z,24.91
2018-09-20T10:27:00.868Z,24.74
2018-09-20T10:28:00.926Z,24.66
2018-09-20T10:29:00.872Z,24.76
2018-09-20T10:30:00.858Z,24.73
2018-09-20T10:31:00.857Z,24.60
2018-09-20T10:32:00.819Z,24.40
2018-09-20T10:33:00.803Z,24.32
2018-09-20T10:34:00.854Z,24.02
2018-09-20T10:35:00.809Z,23.92
2018-09-20T10:36:00.770Z,23.87
2018-09-20T10:37:00.769Z,23.69
2018-09-20T10:38:00.756Z,23.61
2018-09-20T10:39:00.780Z,23.61
2018-09-20T10:40:00.728Z,23.71
2018-09-20T10:41:00.764Z,23.76
2018-09-20T10:42:00.707Z,23.88
2018-09-20T10:43:00.712Z,23.91
2018-09-20T10:44:00.687Z,23.83
2018-09-20T10:45:00.698Z,23.86
2018-09-20T10:46:00.673Z,23.80
2018-09-20T10:47:00.662Z,23.87
2018-09-20T10:48:00.641Z,23.95
2018-09-20T10:49:00.633Z,23.84
2018-09-20T10:50:00.645Z,23.74
2018-09-20T10:51:00.668Z,23.65
2018-09-20T10:52:00.614Z,23.62
2018-09-20T10:53:00.594Z,23.47
2018-09-20T10:54:00.583Z,23.71
2018-09-20T10:55:00.584Z,23.74
2018-09-20T10:56:00.578Z,23.56
2018-09-20T10:57:00.548Z,23.40
2018-09-20T10:58:00.552Z,23.31
2018-09-20T10:59:00.526Z,23.34
2018-09-20T11:00:00.520Z,23.27
2018-09-20T11:01:00.524Z,23.32
2018-09-20T11:02:00.503Z,23.32
2018-09-20T11:03:00.518Z,23.39
2018-09-20T11:04:00.499Z,23.47
2018-09-20T11:05:00.485Z,23.47
2018-09-20T11:06:00.484Z,23.77
2018-09-20T11:07:00.439Z,23.74
2018-09-20T11:08:00.436Z,23.73
2018-09-20T11:09:00.419Z,23.58
2018-09-20T11:10:00.408Z,23.78
2018-09-20T11:11:00.492Z,24.13
2018-09-20T11:12:00.392Z,24.38
2018-09-20T11:13:00.393Z,24.45
2018-09-20T11:14:00.370Z,24.47
2018-09-20T11:15:00.363Z,24.38
2018-09-20T11:16:00.366Z,24.32
2018-09-20T11:17:00.349Z,24.35
2018-09-20T11:18:00.328Z,24.26
2018-09-20T11:19:00.314Z,24.03
2018-09-20T11:20:00.337Z,23.81
2018-09-20T11:21:00.318Z,23.71
2018-09-20T11:22:00.275Z,23.54
2018-09-20T11:23:00.270Z,23.44
2018-09-20T11:24:00.255Z,23.24
2018-09-20T11:25:00.256Z,23.37
2018-09-20T11:26:00.330Z,23.54
2018-09-20T11:27:00.254Z,23.55
2018-09-20T11:28:00.213Z,23.81
2018-09-20T11:29:00.204Z,23.95
2018-09-20T11:30:00.199Z,24.06
2018-09-20T11:31:00.229Z,24.21
2018-09-20T11:32:00.170Z,24.36
2018-09-20T11:33:00.161Z,24.54
2018-09-20T11:34:00.153Z,24.43
2018-09-20T11:35:00.150Z,24.55
2018-09-20T11:36:00.150Z,24.48
2018-09-20T11:37:00.128Z,24.54
2018-09-20T11:38:00.121Z,24.50
2018-09-20T11:39:00.103Z,24.38
2018-09-20T11:40:00.095Z,24.24
2018-09-20T11:41:00.161Z,24.32
2018-09-20T11:42:00.070Z,24.39
2018-09-20T11:43:00.053Z,24.55
2018-09-20T11:44:00.052Z,24.43
2018-09-20T11:45:00.038Z,24.58
2018-09-20T11:46:00.045Z,24.61
2018-09-20T11:47:00.007Z,24.74
2018-09-20T11:48:00.002Z,24.78
2018-09-20T11:49:00.018Z,24.88
2018-09-20T11:49:59.994Z,25.01
2018-09-20T11:50:59.968Z,25.10
2018-09-20T11:51:59.977Z,25.18
2018-09-20T11:52:59.943Z,25.33
2018-09-20T11:53:59.939Z,25.22
2018-09-20T11:54:59.928Z,25.18
2018-09-20T11:55:59.916Z,25.32
2018-09-20T11:56:59.914Z,25.04
2018-09-20T11:57:59.891Z,24.92
2018-09-20T12:00:01.003Z,25.10
2018-09-20T12:00:59.870Z,25.17
2018-09-20T12:01:59.951Z,25.31
2018-09-20T12:02:59.842Z,25.13
2018-09-20T12:03:59.824Z,24.98
2018-09-20T12:04:59.817Z,24.95
2018-09-20T12:05:59.810Z,24.89
2018-09-20T12:06:59.792Z,24.78
2018-09-20T12:07:59.801Z,24.76
2018-09-20T12:08:59.779Z,24.77
2018-09-20T12:09:59.782Z,24.85
2018-09-20T12:10:59.749Z,24.85
2018-09-20T12:11:59.738Z,24.74
2018-09-20T12:12:59.775Z,24.77
2018-09-20T12:13:59.716Z,24.60
2018-09-20T12:14:59.708Z,24.65
2018-09-20T12:15:59.696Z,24.73
2018-09-20T12:16:59.693Z,24.99
2018-09-20T12:17:59.746Z,25.08
2018-09-20T12:18:59.663Z,25.13
2018-09-20T12:19:59.734Z,25.32
2018-09-20T12:20:59.638Z,25.44
2018-09-20T12:21:59.655Z,25.59
2018-09-20T12:22:59.614Z,25.47
2018-09-20T12:23:59.699Z,25.36
2018-09-20T12:24:59.601Z,25.21
2018-09-20T12:25:59.675Z,25.14
2018-09-20T12:26:59.576Z,24.96
2018-09-20T12:27:59.621Z,24.89
2018-09-20T12:28:59.572Z,24.91
2018-09-20T12:29:59.543Z,24.99
2018-09-20T12:30:59.535Z,24.99
2018-09-20T12:31:59.592Z,24.88
2018-09-20T12:32:59.510Z,24.78
2018-09-20T12:33:59.525Z,24.78
2018-09-20T12:34:59.504Z,24.80
2018-09-20T12:35:59.525Z,24.74
2018-09-20T12:36:59.461Z,24.68
2018-09-20T12:37:59.460Z,24.60
2018-09-20T12:38:59.499Z,24.73
2018-09-20T12:39:59.460Z,24.61
2018-09-20T12:40:59.434Z,24.54
2018-09-20T12:41:59.418Z,24.43
2018-09-20T12:42:59.558Z,24.57
2018-09-20T12:43:59.391Z,24.57
2018-09-20T12:44:59.423Z,24.73
2018-09-20T12:45:59.374Z,24.77
2018-09-20T12:46:59.357Z,24.91
2018-09-20T12:47:59.351Z,25.03
2018-09-20T12:48:59.338Z,25.10
2018-09-20T12:49:59.349Z,25.07
2018-09-20T12:50:59.316Z,25.07
2018-09-20T12:51:59.309Z,25.01
2018-09-20T12:52:59.296Z,24.99
2018-09-20T12:53:59.309Z,25.07